Time;durP1;ratioP1;P1;durP2;ratioP2;P2;SDS_P1;SDS_P2;PMS_P1;PMS_P2;Temp;Humidity;BMP_temperature;BMP_pressure;BME280_temperature;BME280_humidity;BME280_pressure;Samples;Min_cycle;Max_cycle;Signal;HPM_P1;HPM_P2
2023/02/10 00:01:31;;;;;;;;;;;;;;;-3.47;80.99;98269.03;5100514;28;19953;-75
2023/02/10 00:03:57;;;;;;;;;;;;;;;-3.47;81.75;98273.34;5100572;28;19963;-75
2023/02/10 00:06:23;;;;;;;;;;;;;;;-3.48;82.09;98271.72;5100223;28;20054;-75
2023/02/10 00:08:50;;;;;;;;;;;;;;;-3.50;82.17;98270.97;5100184;28;19941;-75
2023/02/10 00:11:17;;;;;;;;;;;;;;;-3.48;83.15;98281.97;5100709;28;19955;-75
2023/02/10 00:13:43;;;;;;;;;;;;;;;-3.48;84.10;98287.09;5100117;28;20473;-75
2023/02/10 00:16:11;;;;;;;;;;;;;;;-3.48;84.14;98277.66;5100410;28;19955;-75
2023/02/10 00:18:37;;;;;;;;;;;;;;;-3.45;82.97;98280.97;5100244;28;19958;-76
2023/02/10 00:21:07;;;;;;;;;;;;;;;-3.47;83.26;98274.16;5100494;28;19958;-75
2023/02/10 00:23:33;;;;;;;;;;;;;;;-3.48;82.72;98272.53;5100072;28;19951;-75
2023/02/10 00:26:03;;;;;;;;;;;;;;;-3.49;82.71;98278.56;5100425;28;19951;-75
2023/02/10 00:28:29;;;;;;;;;;;;;;;-3.51;82.58;98267.59;5100465;28;19956;-75
2023/02/10 00:30:55;;;;;;;;;;;;;;;-3.51;83.57;98271.84;5100359;28;19951;-75
2023/02/10 00:33:21;;;;;;;;;;;;;;;-3.51;83.81;98272.72;5099919;28;19962;-75
2023/02/10 00:35:47;;;;;;;;;;;;;;;-3.52;83.18;98262.53;5100762;28;19958;-75
2023/02/10 00:38:13;;;;;;;;;;;;;;;-3.54;82.84;98264.34;5099941;28;19944;-75
2023/02/10 00:40:38;;;;;;;;;;;;;;;-3.56;82.73;98264.41;5100036;28;19949;-75
2023/02/10 00:43:04;;;;;;;;;;;;;;;-3.57;83.14;98273.03;5099585;28;20003;-75
2023/02/10 00:45:30;;;;;;;;;;;;;;;-3.60;82.54;98259.56;5100073;28;20410;-75
2023/02/10 00:47:56;;;;;;;;;;;;;;;-3.63;82.98;98278.50;5099973;28;19994;-75
2023/02/10 00:50:22;;;;;;;;;;;;;;;-3.65;82.73;98284.59;5100812;28;19948;-75
2023/02/10 00:52:48;;;;;;;;;;;;;;;-3.67;82.50;98288.09;5100507;28;19957;-75
2023/02/10 00:55:13;;;;;;;;;;;;;;;-3.70;82.29;98290.00;5100066;28;20043;-76
2023/02/10 00:57:39;;;;;;;;;;;;;;;-3.74;82.27;98289.34;5082303;28;20067;-75
2023/02/10 01:00:05;;;;;;;;;;;;;;;-3.77;82.09;98286.13;5099690;28;19964;-75
2023/02/10 01:02:31;;;;;;;;;;;;;;;-3.81;82.56;98292.31;5096636;28;19953;-75
2023/02/10 01:04:58;;;;;;;;;;;;;;;-3.83;82.28;98294.13;5096609;28;19953;-75
2023/02/10 01:07:24;;;;;;;;;;;;;;;-3.87;82.22;98288.34;5079203;28;20397;-75
2023/02/10 01:09:50;;;;;;;;;;;;;;;-3.88;82.69;98294.38;5096695;28;19963;-75
2023/02/10 01:12:16;;;;;;;;;;;;;;;-3.90;82.83;98294.47;5097041;28;19957;-75
2023/02/10 01:14:42;;;;;;;;;;;;;;;-3.93;83.04;98297.16;5096531;28;19966;-75
2023/02/10 01:17:08;;;;;;;;;;;;;;;-3.93;83.32;98304.84;5096622;28;19961;-75
2023/02/10 01:19:34;;;;;;;;;;;;;;;-3.96;82.99;98304.22;5096513;28;19955;-75
2023/02/10 01:21:59;;;;;;;;;;;;;;;-3.99;82.43;98302.66;5096546;28;19958;-75
2023/02/10 01:24:25;;;;;;;;;;;;;;;-4.03;82.16;98303.72;5096213;28;19950;-76
2023/02/10 01:26:52;;;;;;;;;;;;;;;-4.06;82.61;98303.03;5096694;28;20001;-75
2023/02/10 01:29:17;;;;;;;;;;;;;;;-4.11;82.42;98304.09;5096176;28;20411;-77
2023/02/10 01:31:43;;;;;;;;;;;;;;;-4.13;82.17;98305.91;5096292;28;19959;-75
2023/02/10 01:34:09;;;;;;;;;;;;;;;-4.18;82.46;98302.78;5096229;28;20016;-75
2023/02/10 01:36:35;;;;;;;;;;;;;;;-4.20;82.06;98296.91;5096147;28;20293;-75
2023/02/10 01:39:01;;;;;;;;;;;;;;;-4.21;82.85;98308.03;5096266;28;19976;-75
2023/02/10 01:41:27;;;;;;;;;;;;;;;-4.23;83.10;98309.88;5095905;28;20493;-75
2023/02/10 01:43:58;;;;;;;;;;;;;;;-4.23;83.73;98309.88;5096014;28;20069;-75
2023/02/10 01:46:24;;;;;;;;;;;;;;;-4.24;83.35;98303.09;5095978;28;19945;-75
2023/02/10 01:48:51;;;;;;;;;;;;;;;-4.25;83.57;98303.16;5095752;28;19949;-75
2023/02/10 01:51:19;;;;;;;;;;;;;;;-4.26;83.32;98306.63;5096136;28;20403;-75
2023/02/10 01:53:45;;;;;;;;;;;;;;;-4.32;82.72;98300.91;5095587;28;19963;-75
2023/02/10 01:56:12;;;;;;;;;;;;;;;-4.35;82.55;98301.06;5096045;28;19950;-75
2023/02/10 01:58:41;;;;;;;;;;;;;;;-4.39;81.68;98298.75;5095655;28;19970;-75
2023/02/10 02:01:07;;;;;;;;;;;;;;;-4.43;82.26;98304.94;5095406;28;19942;-75
2023/02/10 02:03:33;;;;;;;;;;;;;;;-4.48;82.55;98305.16;5095726;28;20332;-75
2023/02/10 02:05:59;;;;;;;;;;;;;;;-4.51;82.59;98303.59;5095498;28;19952;-75
2023/02/10 02:08:27;;;;;;;;;;;;;;;-4.54;82.60;98313.97;5095259;28;20040;-76
2023/02/10 02:11:11;;;;;;;;;;;;;;;-4.56;82.09;98307.28;5095608;28;19968;-75
2023/02/10 02:13:55;;;;;;;;;;;;;;;-4.59;82.10;98303.16;5093903;28;19998;-75
2023/02/10 02:16:45;;;;;;;;;;;;;;;-4.60;82.32;98309.19;5095364;28;19944;-75
2023/02/10 02:19:29;;;;;;;;;;;;;;;-4.62;83.45;98313.56;5072559;28;19949;-75
2023/02/10 02:22:26;;;;;;;;;;;;;;;-4.62;83.60;98323.81;5095064;28;19942;-75
2023/02/10 02:24:58;;;;;;;;;;;;;;;-4.60;84.25;98328.81;5086727;28;19948;-75
2023/02/10 02:27:33;;;;;;;;;;;;;;;-4.61;83.90;98333.13;5095427;28;20412;-75
2023/02/10 02:29:58;;;;;;;;;;;;;;;-4.62;84.07;98326.38;5094871;28;19947;-75
2023/02/10 02:32:26;;;;;;;;;;;;;;;-4.65;83.27;98328.25;5094574;28;19948;-75
2023/02/10 02:34:59;;;;;;;;;;;;;;;-4.69;82.81;98323.25;5095054;28;20324;-75
2023/02/10 02:37:30;;;;;;;;;;;;;;;-4.73;83.16;98324.31;5094828;28;19971;-75
2023/02/10 02:39:55;;;;;;;;;;;;;;;-4.75;82.84;98315.06;5095304;28;19948;-75
2023/02/10 02:42:23;;;;;;;;;;;;;;;-4.79;82.98;98311.81;5094627;28;20035;-76
2023/02/10 02:44:53;;;;;;;;;;;;;;;-4.82;83.24;98309.41;5094984;28;19956;-75
2023/02/10 02:47:18;;;;;;;;;;;;;;;-4.84;82.92;98320.63;5094728;28;19953;-75
2023/02/10 02:49:55;;;;;;;;;;;;;;;-4.86;82.86;98318.16;5076430;28;19987;-75
2023/02/10 02:52:26;;;;;;;;;;;;;;;-4.88;83.49;98329.38;5094745;28;19951;-75
2023/02/10 02:54:59;;;;;;;;;;;;;;;-4.91;83.74;98332.91;5094783;28;19955;-76
2023/02/10 02:57:34;;;;;;;;;;;;;;;-4.91;83.91;98335.47;5094655;28;20305;-75
2023/02/10 03:00:05;;;;;;;;;;;;;;;-4.88;83.81;98331.94;5094758;28;19943;-75
2023/02/10 03:02:33;;;;;;;;;;;;;;;-4.88;84.26;98337.03;5094311;28;19939;-75
2023/02/10 03:04:59;;;;;;;;;;;;;;;-4.87;84.43;98346.38;5094346;28;20350;-75
2023/02/10 03:07:25;;;;;;;;;;;;;;;-4.87;84.27;98343.81;5094251;28;19941;-75
2023/02/10 03:09:51;;;;;;;;;;;;;;;-4.86;84.44;98348.84;5094373;28;19951;-75
2023/02/10 03:12:17;;;;;;;;;;;;;;;-4.89;83.88;98338.78;5076644;28;19956;-75
2023/02/10 03:14:43;;;;;;;;;;;;;;;-4.91;83.87;98331.16;5094224;28;19963;-75
2023/02/10 03:17:09;;;;;;;;;;;;;;;-4.93;84.23;98343.22;5094382;28;20372;-75
2023/02/10 03:19:35;;;;;;;;;;;;;;;-4.94;84.27;98338.16;5076360;28;19942;-75
2023/02/10 03:22:01;;;;;;;;;;;;;;;-4.95;84.13;98336.53;5094221;28;20304;-76
2023/02/10 03:24:26;;;;;;;;;;;;;;;-4.97;84.56;98339.16;5075480;28;19978;-75
2023/02/10 03:26:52;;;;;;;;;;;;;;;-4.98;83.92;98339.22;5094274;28;19996;-76
2023/02/10 03:29:18;;;;;;;;;;;;;;;-5.01;83.94;98340.19;5094013;28;20050;-75
2023/02/10 03:31:44;;;;;;;;;;;;;;;-5.01;84.75;98347.88;5093918;28;19955;-75
2023/02/10 03:34:10;;;;;;;;;;;;;;;-5.01;84.54;98342.75;5093780;28;20478;-75
2023/02/10 03:36:36;;;;;;;;;;;;;;;-5.02;83.59;98337.69;5093978;28;19943;-75
2023/02/10 03:39:02;;;;;;;;;;;;;;;-5.02;84.24;98345.38;5093961;28;20394;-75
2023/02/10 03:41:28;;;;;;;;;;;;;;;-5.04;84.21;98352.28;5093932;28;19950;-75
2023/02/10 03:43:54;;;;;;;;;;;;;;;-5.04;84.37;98353.16;5094055;28;20411;-75
2023/02/10 03:46:21;;;;;;;;;;;;;;;-5.06;83.92;98341.31;5094101;28;19963;-75
2023/02/10 03:48:47;;;;;;;;;;;;;;;-5.08;83.64;98351.63;5093759;28;20406;-75
2023/02/10 03:51:13;;;;;;;;;;;;;;;-5.08;84.12;98353.34;5093665;28;20417;-75
2023/02/10 03:53:39;;;;;;;;;;;;;;;-5.12;84.27;98356.06;5075872;28;19946;-76
2023/02/10 03:56:05;;;;;;;;;;;;;;;-5.14;84.48;98357.88;5093613;28;19958;-75
2023/02/10 03:58:34;;;;;;;;;;;;;;;-5.15;84.05;98357.94;5075711;28;19958;-75
2023/02/10 04:01:00;;;;;;;;;;;;;;;-5.17;83.74;98352.06;5093622;28;19952;-75
2023/02/10 04:03:26;;;;;;;;;;;;;;;-5.18;83.69;98364.03;5094071;28;20005;-75
2023/02/10 04:05:51;;;;;;;;;;;;;;;-5.19;84.58;98366.63;5093513;28;19956;-75
2023/02/10 04:08:17;;;;;;;;;;;;;;;-5.20;84.31;98360.69;5094073;28;19953;-75
2023/02/10 04:10:43;;;;;;;;;;;;;;;-5.19;84.40;98362.34;5093767;28;19949;-75
2023/02/10 04:13:09;;;;;;;;;;;;;;;-5.19;84.78;98370.03;5093597;28;20365;-75
2023/02/10 04:15:35;;;;;;;;;;;;;;;-5.19;84.52;98376.88;5093493;28;19972;-75
2023/02/10 04:18:01;;;;;;;;;;;;;;;-5.21;83.98;98371.81;5093443;28;20442;-76
2023/02/10 04:20:27;;;;;;;;;;;;;;;-5.21;83.94;98373.56;5093568;28;19955;-75
2023/02/10 04:22:52;;;;;;;;;;;;;;;-5.22;84.35;98372.75;5092875;28;19976;-75
2023/02/10 04:25:18;;;;;;;;;;;;;;;-5.24;84.54;98374.53;5093562;28;19962;-75
2023/02/10 04:27:44;;;;;;;;;;;;;;;-5.25;84.22;98372.03;5093523;28;19953;-75
2023/02/10 04:30:10;;;;;;;;;;;;;;;-5.28;83.94;98362.78;5093513;28;20395;-75
2023/02/10 04:32:36;;;;;;;;;;;;;;;-5.31;83.72;98362.94;5093416;28;19950;-75
2023/02/10 04:35:02;;;;;;;;;;;;;;;-5.33;83.68;98362.19;5093320;28;20378;-75
2023/02/10 04:37:28;;;;;;;;;;;;;;;-5.35;83.58;98361.44;5095707;28;19957;-75
2023/02/10 04:39:54;;;;;;;;;;;;;;;-5.36;84.23;98360.56;5097156;28;20036;-75
2023/02/10 04:42:29;;;;;;;;;;;;;;;-5.37;84.15;98376.00;5097293;28;20476;-77
2023/02/10 04:44:56;;;;;;;;;;;;;;;-5.37;83.79;98368.34;5082045;28;19953;-75
2023/02/10 04:47:23;;;;;;;;;;;;;;;-5.38;84.37;98382.00;5097008;28;19973;-76
2023/02/10 04:49:49;;;;;;;;;;;;;;;-5.38;84.67;98382.00;5096917;28;19944;-75
2023/02/10 04:52:15;;;;;;;;;;;;;;;-5.38;84.85;98377.72;5097523;28;19953;-75
2023/02/10 04:54:41;;;;;;;;;;;;;;;-5.37;84.50;98383.69;5096998;28;20377;-75
2023/02/10 04:57:07;;;;;;;;;;;;;;;-5.39;84.93;98381.19;5097344;28;20358;-75
2023/02/10 04:59:32;;;;;;;;;;;;;;;-5.43;84.56;98379.66;5096802;28;19958;-75
2023/02/10 05:01:58;;;;;;;;;;;;;;;-5.46;83.99;98378.97;5096584;28;19952;-75
2023/02/10 05:04:24;;;;;;;;;;;;;;;-5.47;83.92;98379.88;5097079;28;19993;-75
2023/02/10 05:06:50;;;;;;;;;;;;;;;-5.49;84.49;98379.13;5096498;28;19946;-75
2023/02/10 05:09:16;;;;;;;;;;;;;;;-5.53;84.02;98381.81;5097072;28;19983;-75
2023/02/10 05:11:43;;;;;;;;;;;;;;;-5.54;83.80;98387.84;5096600;28;20005;-75
2023/02/10 05:14:09;;;;;;;;;;;;;;;-5.55;84.29;98386.16;5096455;28;19971;-77
2023/02/10 05:16:36;;;;;;;;;;;;;;;-5.55;84.80;98388.72;5061698;28;19974;-75
2023/02/10 05:19:02;;;;;;;;;;;;;;;-5.56;85.64;98396.47;5096572;28;19952;-75
2023/02/10 05:21:28;;;;;;;;;;;;;;;-5.55;85.31;98400.69;5096353;28;20348;-75
2023/02/10 05:23:53;;;;;;;;;;;;;;;-5.58;84.57;98396.53;5096395;28;20494;-75
2023/02/10 05:26:19;;;;;;;;;;;;;;;-5.61;84.04;98391.53;5096458;28;19951;-75
2023/02/10 05:28:45;;;;;;;;;;;;;;;-5.62;84.28;98401.88;5096222;28;20011;-76
2023/02/10 05:31:11;;;;;;;;;;;;;;;-5.63;84.90;98401.00;5077843;28;19950;-75
2023/02/10 05:33:37;;;;;;;;;;;;;;;-5.63;85.02;98405.31;5096164;28;19957;-75
2023/02/10 05:36:03;;;;;;;;;;;;;;;-5.63;85.27;98401.00;5096449;28;19973;-75
2023/02/10 05:38:29;;;;;;;;;;;;;;;-5.64;84.91;98401.09;5096117;28;19961;-75
2023/02/10 05:40:55;;;;;;;;;;;;;;;-5.64;85.04;98409.59;5078022;28;19949;-75
2023/02/10 05:43:21;;;;;;;;;;;;;;;-5.64;85.83;98406.22;5095804;28;19978;-75
2023/02/10 05:45:47;;;;;;;;;;;;;;;-5.64;85.91;98406.22;5077781;28;19960;-75
2023/02/10 05:48:13;;;;;;;;;;;;;;;-5.64;85.97;98409.59;5077435;28;20640;-75
2023/02/10 05:50:39;;;;;;;;;;;;;;;-5.66;85.34;98406.28;5096459;28;20033;-75
2023/02/10 05:53:05;;;;;;;;;;;;;;;-5.67;84.83;98412.25;5095645;28;19943;-75
2023/02/10 05:55:32;;;;;;;;;;;;;;;-5.69;85.13;98416.66;5095577;28;19959;-75
2023/02/10 05:57:57;;;;;;;;;;;;;;;-5.71;84.70;98405.66;5095642;28;20356;-75
2023/02/10 06:00:23;;;;;;;;;;;;;;;-5.73;84.68;98420.22;5095724;28;19968;-75
2023/02/10 06:02:49;;;;;;;;;;;;;;;-5.76;84.71;98418.63;5095512;28;20004;-75
2023/02/10 06:05:15;;;;;;;;;;;;;;;-5.77;85.26;98421.25;5095587;28;19995;-75
2023/02/10 06:07:41;;;;;;;;;;;;;;;-5.79;84.86;98425.59;5095303;28;19948;-75
2023/02/10 06:10:07;;;;;;;;;;;;;;;-5.80;85.10;98431.59;5077373;28;19953;-75
2023/02/10 06:12:33;;;;;;;;;;;;;;;-5.80;84.95;98434.97;5095894;28;19958;-75
2023/02/10 06:14:59;;;;;;;;;;;;;;;-5.82;84.74;98439.31;5095221;28;19966;-75
2023/02/10 06:17:26;;;;;;;;;;;;;;;-5.84;84.77;98438.56;5094472;28;19950;-75
2023/02/10 06:19:51;;;;;;;;;;;;;;;-5.84;85.31;98438.56;5095653;28;19952;-75
2023/02/10 06:22:17;;;;;;;;;;;;;;;-5.85;85.16;98438.66;5095129;28;19977;-75
2023/02/10 06:24:43;;;;;;;;;;;;;;;-5.86;84.77;98440.34;5095335;28;20474;-75
2023/02/10 06:27:09;;;;;;;;;;;;;;;-5.88;84.40;98441.31;5094950;28;20389;-75
2023/02/10 06:29:35;;;;;;;;;;;;;;;-5.88;84.19;98441.31;5095304;28;19953;-76
2023/02/10 06:32:01;;;;;;;;;;;;;;;-5.87;84.38;98438.72;5095064;28;20008;-75
2023/02/10 06:34:27;;;;;;;;;;;;;;;-5.86;84.92;98447.19;5095071;28;19959;-76
2023/02/10 06:36:52;;;;;;;;;;;;;;;-5.86;84.79;98442.09;5095159;28;19952;-75
2023/02/10 06:39:18;;;;;;;;;;;;;;;-5.86;84.17;98448.00;5076905;28;19955;-75
2023/02/10 06:41:44;;;;;;;;;;;;;;;-5.88;84.47;98448.97;5094716;28;19949;-76
2023/02/10 06:44:10;;;;;;;;;;;;;;;-5.91;84.49;98443.09;5094701;28;20402;-75
2023/02/10 06:46:36;;;;;;;;;;;;;;;-5.92;84.11;98449.13;5095401;28;20359;-75
2023/02/10 06:49:02;;;;;;;;;;;;;;;-5.88;84.05;98446.44;5094653;28;20374;-75
2023/02/10 06:51:28;;;;;;;;;;;;;;;-5.87;84.88;98458.31;5094940;28;20368;-75
2023/02/10 06:53:54;;;;;;;;;;;;;;;-5.85;85.43;98459.09;5076609;28;20327;-75
2023/02/10 06:56:19;;;;;;;;;;;;;;;-5.84;85.28;98465.84;5094484;28;20053;-75
2023/02/10 06:58:45;;;;;;;;;;;;;;;-5.83;84.61;98470.06;5093928;28;20297;-75
2023/02/10 07:01:13;;;;;;;;;;;;;;;-5.84;84.75;98468.41;5094321;28;20353;-77
2023/02/10 07:03:39;;;;;;;;;;;;;;;-5.83;84.81;98476.00;5078761;28;20404;-75
2023/02/10 07:06:05;;;;;;;;;;;;;;;-5.81;85.00;98479.34;5094559;28;19992;-75
2023/02/10 07:08:31;;;;;;;;;;;;;;;-5.78;84.94;98476.63;5094268;28;19944;-75
2023/02/10 07:10:57;;;;;;;;;;;;;;;-5.76;84.84;98477.38;5094534;28;19949;-75
2023/02/10 07:13:23;;;;;;;;;;;;;;;-5.69;85.02;98477.13;5094161;28;19945;-75
2023/02/10 07:15:49;;;;;;;;;;;;;;;-5.57;85.14;98477.44;5094162;28;20024;-75
2023/02/10 07:18:15;;;;;;;;;;;;;;;-5.33;84.51;98462.75;5094235;28;19991;-75
2023/02/10 07:20:41;;;;;;;;;;;;;;;-4.96;83.42;98460.22;5094046;28;19948;-75
2023/02/10 07:23:07;;;;;;;;;;;;;;;-4.52;82.39;98457.31;5094263;28;19963;-75
2023/02/10 07:25:33;;;;;;;;;;;;;;;-4.08;81.47;98454.28;5093409;28;19954;-75
2023/02/10 07:27:59;;;;;;;;;;;;;;;-3.68;79.78;98444.59;5094198;28;20007;-75
2023/02/10 07:30:25;;;;;;;;;;;;;;;-3.32;79.06;98433.31;5094127;28;19989;-76
2023/02/10 07:32:51;;;;;;;;;;;;;;;-2.95;78.45;98439.03;5094235;28;19951;-75
2023/02/10 07:35:17;;;;;;;;;;;;;;;-2.61;78.25;98434.59;5093836;28;19959;-75
2023/02/10 07:37:43;;;;;;;;;;;;;;;-2.33;77.63;98432.13;5094139;28;19981;-75
2023/02/10 07:40:09;;;;;;;;;;;;;;;-2.10;77.49;98429.94;5093406;28;20033;-76
2023/02/10 07:42:35;;;;;;;;;;;;;;;-1.81;77.23;98435.13;5075764;28;19981;-75
2023/02/10 07:45:01;;;;;;;;;;;;;;;-1.53;76.93;98431.75;5094106;28;19954;-75
2023/02/10 07:47:27;;;;;;;;;;;;;;;-1.25;76.60;98431.69;5093823;28;20331;-75
2023/02/10 07:49:53;;;;;;;;;;;;;;;-0.96;75.11;98433.41;5075828;28;20032;-76
2023/02/10 07:52:20;;;;;;;;;;;;;;;-0.73;74.50;98431.94;5093977;28;19961;-76
2023/02/10 07:54:46;;;;;;;;;;;;;;;-0.57;73.97;98429.19;5093605;28;19957;-75
2023/02/10 07:57:12;;;;;;;;;;;;;;;-0.57;73.36;98432.59;5093824;28;19946;-75
2023/02/10 07:59:38;;;;;;;;;;;;;;;-0.59;73.59;98429.28;5094033;28;20003;-75
2023/02/10 08:02:04;;;;;;;;;;;;;;;-0.63;73.66;98435.56;5093783;28;19996;-75
2023/02/10 08:04:30;;;;;;;;;;;;;;;-0.54;73.59;98429.03;5093749;28;19960;-74
2023/02/10 08:06:56;;;;;;;;;;;;;;;-0.49;72.96;98426.97;5093904;28;19951;-73
2023/02/10 08:09:22;;;;;;;;;;;;;;;-0.59;73.59;98423.31;5093701;28;19954;-73
2023/02/10 08:11:48;;;;;;;;;;;;;;;-0.49;73.88;98432.13;5096413;28;19951;-73
2023/02/10 08:14:14;;;;;;;;;;;;;;;-0.47;72.90;98433.66;5097721;28;19959;-73
2023/02/10 08:16:40;;;;;;;;;;;;;;;-0.52;73.15;98443.44;5097426;28;19963;-73
2023/02/10 08:19:06;;;;;;;;;;;;;;;-0.70;73.18;98439.47;5097997;28;19957;-73
2023/02/10 08:21:32;;;;;;;;;;;;;;;-0.71;74.21;98448.97;5097480;28;20387;-73
2023/02/10 08:23:58;;;;;;;;;;;;;;;-0.58;74.03;98448.19;5097767;28;20120;-73
2023/02/10 08:26:24;;;;;;;;;;;;;;;-0.55;73.90;98443.63;5097076;28;19960;-73
2023/02/10 08:28:50;;;;;;;;;;;;;;;-0.41;74.38;98448.72;5097592;28;19959;-74
2023/02/10 08:31:16;;;;;;;;;;;;;;;-0.32;73.56;98442.16;5097652;28;19953;-75
2023/02/10 08:33:43;;;;;;;;;;;;;;;-0.17;73.71;98442.91;5097403;28;20413;-75
2023/02/10 08:36:10;;;;;;;;;;;;;;;-0.08;72.74;98454.38;5097319;28;19970;-75
2023/02/10 08:38:36;;;;;;;;;;;;;;;-0.09;72.35;98447.56;5078949;28;20295;-75
2023/02/10 08:41:02;;;;;;;;;;;;;;;-0.06;72.30;98437.06;5097143;28;20002;-75
2023/02/10 08:43:28;;;;;;;;;;;;;;;0.06;72.64;98448.28;5097512;28;19977;-75
2023/02/10 08:45:55;;;;;;;;;;;;;;;0.05;72.99;98452.63;5097348;28;20348;-75
2023/02/10 08:48:21;;;;;;;;;;;;;;;0.08;72.30;98446.44;5096969;28;19953;-75
2023/02/10 08:50:46;;;;;;;;;;;;;;;0.16;71.99;98447.56;5096984;28;20439;-75
2023/02/10 08:53:12;;;;;;;;;;;;;;;0.30;72.59;98449.22;5096992;28;20403;-75
2023/02/10 08:55:38;;;;;;;;;;;;;;;0.42;71.93;98450.19;5096689;28;19970;-74
2023/02/10 08:58:04;;;;;;;;;;;;;;;0.43;71.91;98453.56;5079229;28;20007;-74
2023/02/10 09:00:30;;;;;;;;;;;;;;;0.40;72.54;98444.28;5096893;28;19958;-74
2023/02/10 09:02:56;;;;;;;;;;;;;;;0.36;71.93;98438.50;5097021;28;19990;-75
2023/02/10 09:05:21;;;;;;;;;;;;;;;0.35;73.10;98454.09;5078970;28;20012;-75
2023/02/10 09:07:47;;;;;;;;;;;;;;;0.27;71.60;98441.69;5096588;28;19948;-75
2023/02/10 09:10:14;;;;;;;;;;;;;;;0.32;72.48;98449.16;5096624;28;20418;-75
2023/02/10 09:12:40;;;;;;;;;;;;;;;0.33;71.68;98449.00;5096643;28;19961;-75
2023/02/10 09:15:07;;;;;;;;;;;;;;;0.44;72.54;98452.63;5096550;28;19977;-75
2023/02/10 09:17:33;;;;;;;;;;;;;;;0.68;72.23;98444.97;5096512;28;19949;-75
2023/02/10 09:19:59;;;;;;;;;;;;;;;0.85;72.39;98439.44;5096644;28;19986;-75
2023/02/10 09:22:25;;;;;;;;;;;;;;;1.05;72.14;98432.03;5095716;28;20021;-74
2023/02/10 09:24:52;;;;;;;;;;;;;;;1.07;71.62;98440.50;5096171;28;20001;-74
2023/02/10 09:27:18;;;;;;;;;;;;;;;1.07;70.94;98437.94;5096526;28;19980;-74
2023/02/10 09:29:44;;;;;;;;;;;;;;;1.07;71.14;98433.63;5096070;28;19948;-74
2023/02/10 09:32:10;;;;;;;;;;;;;;;1.15;70.77;98430.47;5078098;28;20326;-74
2023/02/10 09:34:36;;;;;;;;;;;;;;;1.17;71.04;98431.19;5096153;28;19956;-74
2023/02/10 09:37:03;;;;;;;;;;;;;;;1.09;70.18;98439.50;5095938;28;20344;-75
2023/02/10 09:39:29;;;;;;;;;;;;;;;1.13;71.34;98442.66;5096026;28;19955;-74
2023/02/10 09:41:54;;;;;;;;;;;;;;;1.10;71.04;98448.88;5095857;28;20323;-74
2023/02/10 09:44:22;;;;;;;;;;;;;;;0.92;70.81;98432.09;5095807;28;19994;-74
2023/02/10 09:46:58;;;;;;;;;;;;;;;0.91;72.45;98454.53;5096167;28;19958;-74
2023/02/10 09:49:44;;;;;;;;;;;;;;;0.95;71.78;98447.41;5077837;28;20426;-74
2023/02/10 09:52:41;;;;;;;;;;;;;;;0.96;72.91;98459.38;5096049;28;20316;-75
2023/02/10 09:55:12;;;;;;;;;;;;;;;0.93;72.97;98457.81;5095716;28;19961;-75
2023/02/10 09:57:41;;;;;;;;;;;;;;;0.91;72.94;98462.28;5095939;28;19965;-75
2023/02/10 10:00:20;;;;;;;;;;;;;;;0.98;73.56;98467.84;5095479;28;19953;-75
2023/02/10 10:02:53;;;;;;;;;;;;;;;1.10;74.44;98472.16;5095903;28;19952;-75
2023/02/10 10:05:30;;;;;;;;;;;;;;;1.26;73.56;98471.06;5095449;28;20347;-75
2023/02/10 10:07:57;;;;;;;;;;;;;;;1.36;72.86;98469.47;5077758;28;19948;-75
2023/02/10 10:10:23;;;;;;;;;;;;;;;1.42;73.80;98464.66;5095675;28;19952;-75
2023/02/10 10:12:49;;;;;;;;;;;;;;;1.56;73.09;98465.47;5095553;28;19960;-75
2023/02/10 10:15:16;;;;;;;;;;;;;;;1.61;73.27;98464.16;5095711;28;20043;-75
2023/02/10 10:17:51;;;;;;;;;;;;;;;1.81;73.52;98461.91;5095667;28;19947;-75
2023/02/10 10:20:19;;;;;;;;;;;;;;;1.90;73.16;98445.69;5094917;28;19958;-76
2023/02/10 10:23:02;;;;;;;;;;;;;;;2.03;72.07;98440.44;5095571;28;19946;-75
2023/02/10 10:25:40;;;;;;;;;;;;;;;2.19;72.87;98448.69;5095136;28;19954;-75
2023/02/10 10:28:18;;;;;;;;;;;;;;;2.16;72.12;98455.88;5095191;28;19955;-75
2023/02/10 10:30:45;;;;;;;;;;;;;;;2.18;71.54;98439.31;5085468;28;20330;-73
2023/02/10 10:33:21;;;;;;;;;;;;;;;2.28;73.00;98454.94;5095000;28;19954;-74
2023/02/10 10:35:47;;;;;;;;;;;;;;;2.39;71.50;98441.19;5094093;28;19973;-73
2023/02/10 10:38:15;;;;;;;;;;;;;;;2.44;70.39;98441.66;5094809;28;20029;-73
2023/02/10 10:40:42;;;;;;;;;;;;;;;2.40;72.55;98450.63;5095144;28;19957;-73
2023/02/10 10:43:12;;;;;;;;;;;;;;;2.41;72.18;98441.88;5095093;28;19975;-73
2023/02/10 10:45:45;;;;;;;;;;;;;;;2.47;70.76;98435.44;5095081;28;20439;-73
2023/02/10 10:48:21;;;;;;;;;;;;;;;2.57;71.05;98432.00;5094844;28;19958;-73
2023/02/10 10:50:47;;;;;;;;;;;;;;;2.56;72.23;98439.88;5094839;28;19955;-73
2023/02/10 10:53:18;;;;;;;;;;;;;;;2.53;72.49;98435.78;5094603;28;19952;-74
2023/02/10 10:55:47;;;;;;;;;;;;;;;2.62;72.42;98432.50;5094910;28;19964;-73
2023/02/10 10:58:23;;;;;;;;;;;;;;;2.78;71.88;98429.53;5076551;28;20330;-73
2023/02/10 11:00:50;;;;;;;;;;;;;;;2.94;71.13;98428.31;5094749;28;19964;-73
2023/02/10 11:03:16;;;;;;;;;;;;;;;3.16;70.64;98422.28;5094843;28;19950;-73
2023/02/10 11:05:43;;;;;;;;;;;;;;;3.44;70.46;98426.91;5094583;28;19951;-74
2023/02/10 11:08:22;;;;;;;;;;;;;;;3.59;68.15;98409.28;5094733;28;19946;-73
2023/02/10 11:10:50;;;;;;;;;;;;;;;3.73;68.61;98407.31;5094438;28;19950;-74
2023/02/10 11:13:27;;;;;;;;;;;;;;;3.75;67.41;98401.03;5094291;28;19959;-74
2023/02/10 11:16:02;;;;;;;;;;;;;;;3.81;68.49;98403.13;5094402;28;19967;-73
2023/02/10 11:18:28;;;;;;;;;;;;;;;3.83;65.11;98385.66;5094548;28;20417;-73
2023/02/10 11:20:59;;;;;;;;;;;;;;;3.92;68.32;98398.81;5094216;28;19957;-73
2023/02/10 11:23:28;;;;;;;;;;;;;;;3.93;67.25;98398.69;5094092;28;19960;-73
2023/02/10 11:25:55;;;;;;;;;;;;;;;3.87;67.50;98399.22;5094080;28;19947;-73
2023/02/10 11:28:24;;;;;;;;;;;;;;;3.90;68.16;98408.50;5094000;28;20397;-74
2023/02/10 11:31:03;;;;;;;;;;;;;;;3.98;64.92;98393.94;5094057;28;19955;-73
2023/02/10 11:33:31;;;;;;;;;;;;;;;4.18;65.25;98394.03;5094023;28;19952;-73
2023/02/10 11:36:07;;;;;;;;;;;;;;;4.33;64.12;98386.75;5093831;28;19961;-74
2023/02/10 11:38:34;;;;;;;;;;;;;;;4.45;62.51;98381.31;5094398;28;19944;-74
2023/02/10 11:41:04;;;;;;;;;;;;;;;4.67;61.81;98388.09;5093423;28;20124;-73
2023/02/10 11:43:34;;;;;;;;;;;;;;;4.77;59.35;98382.13;5093535;28;20340;-73
2023/02/10 11:46:03;;;;;;;;;;;;;;;4.88;57.78;98374.19;5093550;28;19958;-73
2023/02/10 11:48:29;;;;;;;;;;;;;;;4.99;61.45;98394.03;5093934;28;20302;-75
2023/02/10 11:51:15;;;;;;;;;;;;;;;5.05;58.23;98372.72;5093867;28;19951;-75
2023/02/10 11:53:42;;;;;;;;;;;;;;;4.98;56.41;98380.22;5080710;28;19952;-73
2023/02/10 11:56:21;;;;;;;;;;;;;;;4.96;57.87;98386.53;5093607;28;19959;-73
2023/02/10 11:58:59;;;;;;;;;;;;;;;4.98;54.95;98363.81;5093590;28;20412;-73
2023/02/10 12:01:33;;;;;;;;;;;;;;;5.02;55.44;98365.19;5094110;28;19947;-74
2023/02/10 12:04:02;;;;;;;;;;;;;;;5.15;57.66;98376.16;5094372;28;19953;-74
2023/02/10 12:06:31;;;;;;;;;;;;;;;5.23;55.90;98365.88;5093548;28;20422;-74
2023/02/10 12:09:16;;;;;;;;;;;;;;;5.32;53.95;98366.84;5083114;28;19948;-74
2023/02/10 12:11:42;;;;;;;;;;;;;;;5.48;57.41;98384.47;5085681;28;20394;-74
2023/02/10 12:14:31;;;;;;;;;;;;;;;5.30;53.85;98376.56;5093659;28;19956;-74
2023/02/10 12:17:15;;;;;;;;;;;;;;;5.12;56.42;98384.19;5092791;28;19959;-74
2023/02/10 12:19:57;;;;;;;;;;;;;;;5.04;53.27;98384.06;5093463;28;19952;-74
2023/02/10 12:22:26;;;;;;;;;;;;;;;5.08;55.05;98381.06;5093398;28;19961;-73
2023/02/10 12:25:01;;;;;;;;;;;;;;;5.18;50.07;98375.03;5093509;28;19956;-73
2023/02/10 12:27:27;;;;;;;;;;;;;;;5.34;53.63;98379.72;5075546;28;20354;-73
2023/02/10 12:29:53;;;;;;;;;;;;;;;5.45;54.50;98382.16;5093560;28;19949;-76
2023/02/10 12:32:22;;;;;;;;;;;;;;;5.48;51.00;98363.66;5076058;28;20403;-75
2023/02/10 12:35:00;;;;;;;;;;;;;;;5.56;53.11;98369.00;5093720;28;19954;-75
2023/02/10 12:37:32;;;;;;;;;;;;;;;5.65;52.71;98364.78;5093402;28;19958;-73
2023/02/10 12:40:16;;;;;;;;;;;;;;;5.69;51.58;98363.50;5093442;28;19943;-73
2023/02/10 12:42:42;;;;;;;;;;;;;;;5.73;51.58;98354.47;5093658;28;19981;-73
2023/02/10 12:45:11;;;;;;;;;;;;;;;5.79;53.83;98355.69;5093392;28;19959;-73
2023/02/10 12:47:40;;;;;;;;;;;;;;;5.79;53.81;98356.50;5093593;28;19954;-73
2023/02/10 12:50:25;;;;;;;;;;;;;;;5.84;52.55;98349.09;5093264;28;19947;-73
2023/02/10 12:52:56;;;;;;;;;;;;;;;5.80;53.28;98349.53;5093031;28;19959;-73
2023/02/10 12:55:24;;;;;;;;;;;;;;;5.61;50.05;98343.41;5093249;28;20011;-73